Laclede, Missouri
Current Conditions -  °F | °C
As of 6:55 AM on Saturday 25 Oct 2014 (Local Time) from KIRK Reporting Station
Moderate Fog Moderate Fog  
Wind Chill: 54°   Ceiling: 100
Heat Index: 54°   Visibility: 0.25mi
Dew Point: 54°   Wind: 5mph
Humidity: 100%   Direction: 310°NW
Pressure: 30.03"   Gusts: NA
Location:  39.79°N, 93.17°W
Report Text: KIRK 251155Z AUTO 31004KT 1/4SM FG VV001 12/12 A3003 RMK AO2 SLP171 T01220122 10144 20100 53012
Loading
Personal Weather Stations






























Interactive Weather Map
Tropical Storm Tracking
New forecast layout! Learn more

10-Day Weather Forecast

Advertisements
Track Severe Weather on mobile